sensor_id;sensor_type;location;lat;lon;timestamp;temperature;humidity
32522;DHT22;18963;51.504;5.316;2022-08-23T00:00:01;16.50;99.90
32522;DHT22;18963;51.504;5.316;2022-08-23T00:02:29;16.40;99.90
32522;DHT22;18963;51.504;5.316;2022-08-23T00:04:55;16.30;99.90
32522;DHT22;18963;51.504;5.316;2022-08-23T00:07:20;16.20;99.90
32522;DHT22;18963;51.504;5.316;2022-08-23T00:09:47;16.20;99.90
32522;DHT22;18963;51.504;5.316;2022-08-23T00:12:17;16.10;99.90
32522;DHT22;18963;51.504;5.316;2022-08-23T00:14:48;16.00;99.90
32522;DHT22;18963;51.504;5.316;2022-08-23T00:17:14;15.90;99.90
32522;DHT22;18963;51.504;5.316;2022-08-23T00:19:40;15.80;99.90
32522;DHT22;18963;51.504;5.316;2022-08-23T00:22:06;15.80;99.90
32522;DHT22;18963;51.504;5.316;2022-08-23T00:24:32;15.70;99.90
32522;DHT22;18963;51.504;5.316;2022-08-23T00:29:27;15.60;99.90
32522;DHT22;18963;51.504;5.316;2022-08-23T00:31:54;15.60;99.90
32522;DHT22;18963;51.504;5.316;2022-08-23T00:34:19;15.50;99.90
32522;DHT22;18963;51.504;5.316;2022-08-23T00:36:46;15.50;99.90
32522;DHT22;18963;51.504;5.316;2022-08-23T00:39:12;15.40;99.90
32522;DHT22;18963;51.504;5.316;2022-08-23T00:41:38;15.30;99.90
32522;DHT22;18963;51.504;5.316;2022-08-23T00:44:03;15.30;99.90
32522;DHT22;18963;51.504;5.316;2022-08-23T00:46:54;15.20;99.90
32522;DHT22;18963;51.504;5.316;2022-08-23T00:49:40;15.20;99.90
32522;DHT22;18963;51.504;5.316;2022-08-23T00:52:08;15.10;99.90
32522;DHT22;18963;51.504;5.316;2022-08-23T00:54:37;15.10;99.90
32522;DHT22;18963;51.504;5.316;2022-08-23T00:57:04;15.10;99.90
32522;DHT22;18963;51.504;5.316;2022-08-23T00:59:30;15.10;99.90
32522;DHT22;18963;51.504;5.316;2022-08-23T01:01:56;15.10;99.90
32522;DHT22;18963;51.504;5.316;2022-08-23T01:04:22;15.10;99.90
32522;DHT22;18963;51.504;5.316;2022-08-23T01:06:57;15.10;99.90
32522;DHT22;18963;51.504;5.316;2022-08-23T01:09:23;15.10;99.90
32522;DHT22;18963;51.504;5.316;2022-08-23T01:11:53;15.10;99.90
32522;DHT22;18963;51.504;5.316;2022-08-23T01:14:29;15.00;99.90
32522;DHT22;18963;51.504;5.316;2022-08-23T01:16:59;15.00;99.90
32522;DHT22;18963;51.504;5.316;2022-08-23T01:19:29;14.90;99.90
32522;DHT22;18963;51.504;5.316;2022-08-23T01:24:28;14.90;99.90
32522;DHT22;18963;51.504;5.316;2022-08-23T01:26:54;14.90;99.90
32522;DHT22;18963;51.504;5.316;2022-08-23T01:29:20;14.90;99.90
32522;DHT22;18963;51.504;5.316;2022-08-23T01:31:45;14.90;99.90
32522;DHT22;18963;51.504;5.316;2022-08-23T01:34:11;14.90;99.90
32522;DHT22;18963;51.504;5.316;2022-08-23T01:36:38;14.90;99.90
32522;DHT22;18963;51.504;5.316;2022-08-23T01:39:04;14.80;99.90
32522;DHT22;18963;51.504;5.316;2022-08-23T01:41:29;14.80;99.90
32522;DHT22;18963;51.504;5.316;2022-08-23T01:43:55;14.80;99.90
32522;DHT22;18963;51.504;5.316;2022-08-23T01:46:21;14.80;99.90
32522;DHT22;18963;51.504;5.316;2022-08-23T01:48:48;14.80;99.90
32522;DHT22;18963;51.504;5.316;2022-08-23T01:51:15;14.80;99.90
32522;DHT22;18963;51.504;5.316;2022-08-23T01:53:41;14.80;99.90
32522;DHT22;18963;51.504;5.316;2022-08-23T01:56:06;14.80;99.90
32522;DHT22;18963;51.504;5.316;2022-08-23T01:58:33;14.90;99.90
32522;DHT22;18963;51.504;5.316;2022-08-23T02:00:59;14.90;99.90
32522;DHT22;18963;51.504;5.316;2022-08-23T02:03:26;14.90;99.90
32522;DHT22;18963;51.504;5.316;2022-08-23T02:05:54;14.80;99.90
32522;DHT22;18963;51.504;5.316;2022-08-23T02:08:19;14.80;99.90
32522;DHT22;18963;51.504;5.316;2022-08-23T02:11:11;14.80;99.90
32522;DHT22;18963;51.504;5.316;2022-08-23T02:13:37;14.90;99.90
32522;DHT22;18963;51.504;5.316;2022-08-23T02:16:03;14.90;99.90
32522;DHT22;18963;51.504;5.316;2022-08-23T02:18:29;14.80;99.90
32522;DHT22;18963;51.504;5.316;2022-08-23T02:20:54;14.90;99.90
32522;DHT22;18963;51.504;5.316;2022-08-23T02:23:20;14.90;99.90
32522;DHT22;18963;51.504;5.316;2022-08-23T02:25:46;14.90;99.90
32522;DHT22;18963;51.504;5.316;2022-08-23T02:28:11;15.00;99.90
32522;DHT22;18963;51.504;5.316;2022-08-23T02:30:37;15.00;99.90
32522;DHT22;18963;51.504;5.316;2022-08-23T02:33:03;15.10;99.90
32522;DHT22;18963;51.504;5.316;2022-08-23T02:35:29;15.10;99.90
32522;DHT22;18963;51.504;5.316;2022-08-23T02:37:57;15.20;99.90
32522;DHT22;18963;51.504;5.316;2022-08-23T02:40:23;15.20;99.90
32522;DHT22;18963;51.504;5.316;2022-08-23T02:42:48;15.20;99.90
32522;DHT22;18963;51.504;5.316;2022-08-23T02:45:14;15.20;99.90
32522;DHT22;18963;51.504;5.316;2022-08-23T02:47:41;15.30;99.90
32522;DHT22;18963;51.504;5.316;2022-08-23T02:50:07;15.30;99.90
32522;DHT22;18963;51.504;5.316;2022-08-23T02:52:33;15.30;99.90
32522;DHT22;18963;51.504;5.316;2022-08-23T02:54:58;15.30;99.90
32522;DHT22;18963;51.504;5.316;2022-08-23T02:57:24;15.30;99.90
32522;DHT22;18963;51.504;5.316;2022-08-23T02:59:50;15.30;99.90
32522;DHT22;18963;51.504;5.316;2022-08-23T03:02:17;15.30;99.90
32522;DHT22;18963;51.504;5.316;2022-08-23T03:04:42;15.30;99.90
32522;DHT22;18963;51.504;5.316;2022-08-23T03:07:08;15.30;99.90
32522;DHT22;18963;51.504;5.316;2022-08-23T03:09:33;15.30;99.90
32522;DHT22;18963;51.504;5.316;2022-08-23T03:11:59;15.30;99.90
32522;DHT22;18963;51.504;5.316;2022-08-23T03:14:25;15.30;99.90
32522;DHT22;18963;51.504;5.316;2022-08-23T03:16:52;15.30;99.90
32522;DHT22;18963;51.504;5.316;2022-08-23T03:19:17;15.30;99.90
32522;DHT22;18963;51.504;5.316;2022-08-23T03:21:43;15.40;99.90
32522;DHT22;18963;51.504;5.316;2022-08-23T03:24:08;15.40;99.90
32522;DHT22;18963;51.504;5.316;2022-08-23T03:26:34;15.40;99.90
32522;DHT22;18963;51.504;5.316;2022-08-23T03:28:59;15.50;99.90
32522;DHT22;18963;51.504;5.316;2022-08-23T03:31:25;15.50;99.90
32522;DHT22;18963;51.504;5.316;2022-08-23T03:33:50;15.60;99.90
32522;DHT22;18963;51.504;5.316;2022-08-23T03:36:16;15.70;99.90
32522;DHT22;18963;51.504;5.316;2022-08-23T03:38:43;15.70;99.90
32522;DHT22;18963;51.504;5.316;2022-08-23T03:41:09;15.80;99.90
32522;DHT22;18963;51.504;5.316;2022-08-23T03:43:35;15.90;99.90
32522;DHT22;18963;51.504;5.316;2022-08-23T03:46:00;15.90;99.90
32522;DHT22;18963;51.504;5.316;2022-08-23T03:48:26;16.00;99.90
32522;DHT22;18963;51.504;5.316;2022-08-23T03:50:51;16.00;99.90
32522;DHT22;18963;51.504;5.316;2022-08-23T03:53:17;16.10;99.90
32522;DHT22;18963;51.504;5.316;2022-08-23T03:55:43;16.10;99.90
32522;DHT22;18963;51.504;5.316;2022-08-23T03:58:09;16.10;99.90
32522;DHT22;18963;51.504;5.316;2022-08-23T04:00:35;16.10;99.90
32522;DHT22;18963;51.504;5.316;2022-08-23T04:03:01;16.10;99.90
32522;DHT22;18963;51.504;5.316;2022-08-23T04:05:27;16.20;99.90
32522;DHT22;18963;51.504;5.316;2022-08-23T04:07:53;16.20;99.90
32522;DHT22;18963;51.504;5.316;2022-08-23T04:10:19;16.20;99.90
32522;DHT22;18963;51.504;5.316;2022-08-23T04:12:45;16.20;99.90
32522;DHT22;18963;51.504;5.316;2022-08-23T04:15:11;16.30;99.90
32522;DHT22;18963;51.504;5.316;2022-08-23T04:17:37;16.20;99.90
32522;DHT22;18963;51.504;5.316;2022-08-23T04:20:03;16.30;99.90
32522;DHT22;18963;51.504;5.316;2022-08-23T04:22:29;16.30;99.90
32522;DHT22;18963;51.504;5.316;2022-08-23T04:24:54;16.30;99.90
32522;DHT22;18963;51.504;5.316;2022-08-23T04:27:20;16.30;99.90
32522;DHT22;18963;51.504;5.316;2022-08-23T04:29:46;16.20;99.90
32522;DHT22;18963;51.504;5.316;2022-08-23T04:32:12;16.20;99.90
32522;DHT22;18963;51.504;5.316;2022-08-23T04:34:38;16.20;99.90
32522;DHT22;18963;51.504;5.316;2022-08-23T04:37:04;16.20;99.90
32522;DHT22;18963;51.504;5.316;2022-08-23T04:39:30;16.20;99.90
32522;DHT22;18963;51.504;5.316;2022-08-23T04:42:15;16.20;99.90
32522;DHT22;18963;51.504;5.316;2022-08-23T04:44:44;16.30;99.90
32522;DHT22;18963;51.504;5.316;2022-08-23T04:47:09;16.30;99.90
32522;DHT22;18963;51.504;5.316;2022-08-23T04:49:35;16.30;99.90
32522;DHT22;18963;51.504;5.316;2022-08-23T04:52:00;16.40;99.90
32522;DHT22;18963;51.504;5.316;2022-08-23T04:54:26;16.30;99.90
32522;DHT22;18963;51.504;5.316;2022-08-23T04:56:53;16.40;99.90
32522;DHT22;18963;51.504;5.316;2022-08-23T04:59:19;16.40;99.90
32522;DHT22;18963;51.504;5.316;2022-08-23T05:01:44;16.40;99.90
32522;DHT22;18963;51.504;5.316;2022-08-23T05:04:10;16.40;99.90
32522;DHT22;18963;51.504;5.316;2022-08-23T05:06:35;16.40;99.90
32522;DHT22;18963;51.504;5.316;2022-08-23T05:09:01;16.40;99.90
32522;DHT22;18963;51.504;5.316;2022-08-23T05:11:27;16.50;99.90
32522;DHT22;18963;51.504;5.316;2022-08-23T05:13:53;16.50;99.90
32522;DHT22;18963;51.504;5.316;2022-08-23T05:16:19;16.60;99.90
32522;DHT22;18963;51.504;5.316;2022-08-23T05:18:44;16.70;99.90
32522;DHT22;18963;51.504;5.316;2022-08-23T05:21:14;16.70;99.90
32522;DHT22;18963;51.504;5.316;2022-08-23T05:23:40;16.70;99.90
32522;DHT22;18963;51.504;5.316;2022-08-23T05:26:06;16.80;99.90
32522;DHT22;18963;51.504;5.316;2022-08-23T05:28:32;16.90;99.90
32522;DHT22;18963;51.504;5.316;2022-08-23T05:31:09;16.90;99.90
32522;DHT22;18963;51.504;5.316;2022-08-23T05:33:35;17.00;99.90
32522;DHT22;18963;51.504;5.316;2022-08-23T05:36:02;17.10;99.90
32522;DHT22;18963;51.504;5.316;2022-08-23T05:38:28;17.10;99.90
32522;DHT22;18963;51.504;5.316;2022-08-23T05:40:54;17.30;99.90
32522;DHT22;18963;51.504;5.316;2022-08-23T05:43:21;17.40;99.90
32522;DHT22;18963;51.504;5.316;2022-08-23T05:45:47;17.50;99.90
32522;DHT22;18963;51.504;5.316;2022-08-23T05:48:13;17.70;99.90
32522;DHT22;18963;51.504;5.316;2022-08-23T05:50:40;17.70;99.90
32522;DHT22;18963;51.504;5.316;2022-08-23T05:53:06;17.90;99.90
32522;DHT22;18963;51.504;5.316;2022-08-23T05:55:32;18.00;99.90
32522;DHT22;18963;51.504;5.316;2022-08-23T05:57:58;18.00;99.90
32522;DHT22;18963;51.504;5.316;2022-08-23T06:00:24;18.10;99.90
32522;DHT22;18963;51.504;5.316;2022-08-23T06:02:49;18.20;99.90
32522;DHT22;18963;51.504;5.316;2022-08-23T06:05:15;18.30;99.90
32522;DHT22;18963;51.504;5.316;2022-08-23T06:07:41;18.40;99.90
32522;DHT22;18963;51.504;5.316;2022-08-23T06:10:06;18.50;99.90
32522;DHT22;18963;51.504;5.316;2022-08-23T06:12:32;18.60;99.90
32522;DHT22;18963;51.504;5.316;2022-08-23T06:14:58;18.60;99.90
32522;DHT22;18963;51.504;5.316;2022-08-23T06:17:23;18.70;99.90
32522;DHT22;18963;51.504;5.316;2022-08-23T06:19:48;18.70;99.90
32522;DHT22;18963;51.504;5.316;2022-08-23T06:22:14;18.80;99.90
32522;DHT22;18963;51.504;5.316;2022-08-23T06:24:39;18.80;99.90
32522;DHT22;18963;51.504;5.316;2022-08-23T06:27:05;18.90;99.90
32522;DHT22;18963;51.504;5.316;2022-08-23T06:29:31;19.00;99.90
32522;DHT22;18963;51.504;5.316;2022-08-23T06:31:57;19.20;99.90
32522;DHT22;18963;51.504;5.316;2022-08-23T06:34:24;19.40;99.90
32522;DHT22;18963;51.504;5.316;2022-08-23T06:36:53;19.60;99.90
32522;DHT22;18963;51.504;5.316;2022-08-23T06:39:20;19.80;99.90
32522;DHT22;18963;51.504;5.316;2022-08-23T06:41:46;20.10;99.90
32522;DHT22;18963;51.504;5.316;2022-08-23T06:44:18;20.40;99.90
32522;DHT22;18963;51.504;5.316;2022-08-23T06:46:44;20.70;99.90
32522;DHT22;18963;51.504;5.316;2022-08-23T06:49:09;21.00;99.90
32522;DHT22;18963;51.504;5.316;2022-08-23T06:51:37;21.30;99.90
32522;DHT22;18963;51.504;5.316;2022-08-23T06:54:04;21.50;99.90
32522;DHT22;18963;51.504;5.316;2022-08-23T06:56:30;21.70;99.90
32522;DHT22;18963;51.504;5.316;2022-08-23T06:58:56;21.80;99.90
32522;DHT22;18963;51.504;5.316;2022-08-23T07:01:22;22.10;99.90
32522;DHT22;18963;51.504;5.316;2022-08-23T07:03:55;22.30;99.90
32522;DHT22;18963;51.504;5.316;2022-08-23T07:06:22;22.60;99.90
32522;DHT22;18963;51.504;5.316;2022-08-23T07:08:47;22.80;99.90
32522;DHT22;18963;51.504;5.316;2022-08-23T07:11:13;23.00;99.90
32522;DHT22;18963;51.504;5.316;2022-08-23T07:13:38;23.40;99.90
32522;DHT22;18963;51.504;5.316;2022-08-23T07:16:04;23.60;99.90
32522;DHT22;18963;51.504;5.316;2022-08-23T07:18:29;23.90;99.90
32522;DHT22;18963;51.504;5.316;2022-08-23T07:20:56;24.20;99.80
32522;DHT22;18963;51.504;5.316;2022-08-23T07:23:23;24.60;98.90
32522;DHT22;18963;51.504;5.316;2022-08-23T07:25:49;24.90;97.80
32522;DHT22;18963;51.504;5.316;2022-08-23T07:28:14;25.30;96.70
32522;DHT22;18963;51.504;5.316;2022-08-23T07:30:39;25.50;96.00
32522;DHT22;18963;51.504;5.316;2022-08-23T07:33:05;25.70;95.20
32522;DHT22;18963;51.504;5.316;2022-08-23T07:35:30;26.00;95.00
32522;DHT22;18963;51.504;5.316;2022-08-23T07:37:56;26.20;94.00
32522;DHT22;18963;51.504;5.316;2022-08-23T07:40:22;26.50;94.10
32522;DHT22;18963;51.504;5.316;2022-08-23T07:42:47;26.80;93.60
32522;DHT22;18963;51.504;5.316;2022-08-23T07:45:13;27.10;91.90
32522;DHT22;18963;51.504;5.316;2022-08-23T07:47:39;27.40;91.30
32522;DHT22;18963;51.504;5.316;2022-08-23T07:50:06;27.70;90.70
32522;DHT22;18963;51.504;5.316;2022-08-23T07:52:32;28.00;90.20
32522;DHT22;18963;51.504;5.316;2022-08-23T07:54:57;28.20;86.10
32522;DHT22;18963;51.504;5.316;2022-08-23T07:57:23;28.30;86.60
32522;DHT22;18963;51.504;5.316;2022-08-23T07:59:48;28.60;85.90
32522;DHT22;18963;51.504;5.316;2022-08-23T08:02:14;28.90;83.00
32522;DHT22;18963;51.504;5.316;2022-08-23T08:04:39;29.10;82.40
32522;DHT22;18963;51.504;5.316;2022-08-23T08:07:06;29.30;82.30
32522;DHT22;18963;51.504;5.316;2022-08-23T08:09:31;29.60;82.20
32522;DHT22;18963;51.504;5.316;2022-08-23T08:11:57;29.90;78.40
32522;DHT22;18963;51.504;5.316;2022-08-23T08:14:22;30.10;75.90
32522;DHT22;18963;51.504;5.316;2022-08-23T08:16:48;30.20;77.00
32522;DHT22;18963;51.504;5.316;2022-08-23T08:19:15;30.40;73.60
32522;DHT22;18963;51.504;5.316;2022-08-23T08:21:42;30.70;74.30
32522;DHT22;18963;51.504;5.316;2022-08-23T08:24:10;31.00;72.60
32522;DHT22;18963;51.504;5.316;2022-08-23T08:26:37;31.10;72.20
32522;DHT22;18963;51.504;5.316;2022-08-23T08:29:02;31.40;70.20
32522;DHT22;18963;51.504;5.316;2022-08-23T08:31:28;31.60;70.00
32522;DHT22;18963;51.504;5.316;2022-08-23T08:33:53;31.70;67.80
32522;DHT22;18963;51.504;5.316;2022-08-23T08:39:05;32.50;65.70
32522;DHT22;18963;51.504;5.316;2022-08-23T08:41:34;32.80;63.30
32522;DHT22;18963;51.504;5.316;2022-08-23T08:46:51;33.00;59.90
32522;DHT22;18963;51.504;5.316;2022-08-23T08:49:29;33.30;59.90
32522;DHT22;18963;51.504;5.316;2022-08-23T08:51:59;33.40;59.50
32522;DHT22;18963;51.504;5.316;2022-08-23T08:54:26;33.40;59.10
32522;DHT22;18963;51.504;5.316;2022-08-23T08:56:54;33.60;58.70
32522;DHT22;18963;51.504;5.316;2022-08-23T08:59:21;33.80;58.20
32522;DHT22;18963;51.504;5.316;2022-08-23T09:01:47;33.90;57.50
32522;DHT22;18963;51.504;5.316;2022-08-23T09:04:13;33.90;57.40
32522;DHT22;18963;51.504;5.316;2022-08-23T09:09:43;34.50;55.70
32522;DHT22;18963;51.504;5.316;2022-08-23T09:17:20;34.60;55.20
32522;DHT22;18963;51.504;5.316;2022-08-23T09:19:49;34.60;55.10
32522;DHT22;18963;51.504;5.316;2022-08-23T09:22:26;34.60;54.80
32522;DHT22;18963;51.504;5.316;2022-08-23T09:24:53;34.60;55.00
32522;DHT22;18963;51.504;5.316;2022-08-23T09:27:20;34.60;55.40
32522;DHT22;18963;51.504;5.316;2022-08-23T09:29:55;34.60;55.50
32522;DHT22;18963;51.504;5.316;2022-08-23T09:32:32;34.70;55.40
32522;DHT22;18963;51.504;5.316;2022-08-23T09:37:56;35.00;54.00
32522;DHT22;18963;51.504;5.316;2022-08-23T09:40:34;34.70;53.40
32522;DHT22;18963;51.504;5.316;2022-08-23T09:43:05;34.60;53.70
32522;DHT22;18963;51.504;5.316;2022-08-23T09:45:32;34.70;53.90
32522;DHT22;18963;51.504;5.316;2022-08-23T09:47:58;35.00;52.30
32522;DHT22;18963;51.504;5.316;2022-08-23T09:50:25;35.10;52.00
32522;DHT22;18963;51.504;5.316;2022-08-23T09:52:55;35.10;52.00
32522;DHT22;18963;51.504;5.316;2022-08-23T09:55:40;35.40;51.70
32522;DHT22;18963;51.504;5.316;2022-08-23T09:58:27;35.30;51.20
32522;DHT22;18963;51.504;5.316;2022-08-23T10:01:09;35.60;51.40
32522;DHT22;18963;51.504;5.316;2022-08-23T10:03:37;36.00;50.60
32522;DHT22;18963;51.504;5.316;2022-08-23T10:06:03;36.20;50.90
32522;DHT22;18963;51.504;5.316;2022-08-23T10:08:34;36.30;50.00
32522;DHT22;18963;51.504;5.316;2022-08-23T10:11:06;36.50;49.40
32522;DHT22;18963;51.504;5.316;2022-08-23T10:13:34;36.70;48.20
32522;DHT22;18963;51.504;5.316;2022-08-23T10:16:04;36.40;48.10
32522;DHT22;18963;51.504;5.316;2022-08-23T10:21:02;36.30;48.40
32522;DHT22;18963;51.504;5.316;2022-08-23T10:25:56;36.30;47.80
32522;DHT22;18963;51.504;5.316;2022-08-23T10:28:29;36.40;48.40
32522;DHT22;18963;51.504;5.316;2022-08-23T10:44:31;36.90;47.00
32522;DHT22;18963;51.504;5.316;2022-08-23T10:47:02;37.20;47.40
32522;DHT22;18963;51.504;5.316;2022-08-23T10:49:30;37.60;46.70
32522;DHT22;18963;51.504;5.316;2022-08-23T10:51:58;37.80;46.40
32522;DHT22;18963;51.504;5.316;2022-08-23T10:54:29;38.10;45.70
32522;DHT22;18963;51.504;5.316;2022-08-23T10:57:03;38.10;45.30
32522;DHT22;18963;51.504;5.316;2022-08-23T10:59:29;37.70;45.60
32522;DHT22;18963;51.504;5.316;2022-08-23T11:04:39;37.70;44.40
32522;DHT22;18963;51.504;5.316;2022-08-23T11:07:18;37.70;44.30
32522;DHT22;18963;51.504;5.316;2022-08-23T11:10:29;37.80;44.80
32522;DHT22;18963;51.504;5.316;2022-08-23T11:12:49;37.50;44.20
32522;DHT22;18963;51.504;5.316;2022-08-23T11:15:20;37.90;44.50
32522;DHT22;18963;51.504;5.316;2022-08-23T11:30:46;38.80;42.70
32522;DHT22;18963;51.504;5.316;2022-08-23T11:33:15;38.90;43.00
32522;DHT22;18963;51.504;5.316;2022-08-23T11:41:27;38.90;42.30
32522;DHT22;18963;51.504;5.316;2022-08-23T11:51:27;38.60;41.90
32522;DHT22;18963;51.504;5.316;2022-08-23T11:56:59;38.50;42.00
32522;DHT22;18963;51.504;5.316;2022-08-23T11:59:32;38.60;41.70
32522;DHT22;18963;51.504;5.316;2022-08-23T12:04:45;39.30;41.50
32522;DHT22;18963;51.504;5.316;2022-08-23T12:07:13;39.80;40.50
32522;DHT22;18963;51.504;5.316;2022-08-23T12:12:23;40.40;40.70
32522;DHT22;18963;51.504;5.316;2022-08-23T12:14:54;40.40;39.70
32522;DHT22;18963;51.504;5.316;2022-08-23T12:22:20;39.60;40.90
32522;DHT22;18963;51.504;5.316;2022-08-23T12:24:53;39.80;40.50
32522;DHT22;18963;51.504;5.316;2022-08-23T12:29:59;39.10;40.90
32522;DHT22;18963;51.504;5.316;2022-08-23T12:40:37;37.60;41.80
32522;DHT22;18963;51.504;5.316;2022-08-23T12:43:25;37.30;42.40
32522;DHT22;18963;51.504;5.316;2022-08-23T12:45:50;36.70;42.70
32522;DHT22;18963;51.504;5.316;2022-08-23T12:48:17;36.40;43.10
32522;DHT22;18963;51.504;5.316;2022-08-23T12:50:49;36.00;43.20
32522;DHT22;18963;51.504;5.316;2022-08-23T12:53:23;35.60;43.70
32522;DHT22;18963;51.504;5.316;2022-08-23T12:55:50;35.10;43.60
32522;DHT22;18963;51.504;5.316;2022-08-23T12:58:17;34.80;44.30
32522;DHT22;18963;51.504;5.316;2022-08-23T13:00:51;34.80;44.90
32522;DHT22;18963;51.504;5.316;2022-08-23T13:03:19;34.80;44.00
32522;DHT22;18963;51.504;5.316;2022-08-23T13:05:46;34.70;44.10
32522;DHT22;18963;51.504;5.316;2022-08-23T13:08:14;34.70;44.00
32522;DHT22;18963;51.504;5.316;2022-08-23T13:10:41;34.40;44.60
32522;DHT22;18963;51.504;5.316;2022-08-23T13:13:09;34.30;45.00
32522;DHT22;18963;51.504;5.316;2022-08-23T13:15:46;34.30;44.90
32522;DHT22;18963;51.504;5.316;2022-08-23T13:21:14;34.00;45.40
32522;DHT22;18963;51.504;5.316;2022-08-23T13:23:34;33.70;45.50
32522;DHT22;18963;51.504;5.316;2022-08-23T13:26:22;33.60;45.70
32522;DHT22;18963;51.504;5.316;2022-08-23T13:36:58;33.40;46.90
32522;DHT22;18963;51.504;5.316;2022-08-23T13:39:25;33.30;46.90
32522;DHT22;18963;51.504;5.316;2022-08-23T13:41:50;33.10;46.80
32522;DHT22;18963;51.504;5.316;2022-08-23T13:44:17;33.00;47.10
32522;DHT22;18963;51.504;5.316;2022-08-23T13:46:43;32.90;47.40
32522;DHT22;18963;51.504;5.316;2022-08-23T13:49:17;33.00;47.60
32522;DHT22;18963;51.504;5.316;2022-08-23T13:54:25;33.00;47.80
32522;DHT22;18963;51.504;5.316;2022-08-23T13:56:52;32.90;47.40
32522;DHT22;18963;51.504;5.316;2022-08-23T13:59:22;32.70;47.30
32522;DHT22;18963;51.504;5.316;2022-08-23T14:01:49;32.60;47.60
32522;DHT22;18963;51.504;5.316;2022-08-23T14:04:15;32.50;48.30
32522;DHT22;18963;51.504;5.316;2022-08-23T14:06:40;32.40;48.80
32522;DHT22;18963;51.504;5.316;2022-08-23T14:09:06;32.30;49.10
32522;DHT22;18963;51.504;5.316;2022-08-23T14:11:32;32.30;49.10
32522;DHT22;18963;51.504;5.316;2022-08-23T14:13:57;32.20;49.20
32522;DHT22;18963;51.504;5.316;2022-08-23T14:16:25;32.10;49.60
32522;DHT22;18963;51.504;5.316;2022-08-23T14:18:52;31.90;49.80
32522;DHT22;18963;51.504;5.316;2022-08-23T14:21:17;31.90;49.60
32522;DHT22;18963;51.504;5.316;2022-08-23T14:23:43;31.80;49.60
32522;DHT22;18963;51.504;5.316;2022-08-23T14:26:08;31.80;50.00
32522;DHT22;18963;51.504;5.316;2022-08-23T14:28:36;31.70;49.40
32522;DHT22;18963;51.504;5.316;2022-08-23T14:31:01;31.60;50.00
32522;DHT22;18963;51.504;5.316;2022-08-23T14:33:26;31.50;50.10
32522;DHT22;18963;51.504;5.316;2022-08-23T14:35:52;31.40;50.40
32522;DHT22;18963;51.504;5.316;2022-08-23T14:38:18;31.30;50.80
32522;DHT22;18963;51.504;5.316;2022-08-23T14:40:47;31.30;50.80
32522;DHT22;18963;51.504;5.316;2022-08-23T14:43:13;31.20;51.30
32522;DHT22;18963;51.504;5.316;2022-08-23T14:45:39;31.10;51.30
32522;DHT22;18963;51.504;5.316;2022-08-23T14:48:05;31.00;51.60
32522;DHT22;18963;51.504;5.316;2022-08-23T14:50:30;30.90;51.70
32522;DHT22;18963;51.504;5.316;2022-08-23T14:52:56;30.80;52.30
32522;DHT22;18963;51.504;5.316;2022-08-23T14:55:21;30.60;52.20
32522;DHT22;18963;51.504;5.316;2022-08-23T14:57:47;30.50;52.80
32522;DHT22;18963;51.504;5.316;2022-08-23T15:00:13;30.30;53.10
32522;DHT22;18963;51.504;5.316;2022-08-23T15:02:41;30.20;53.30
32522;DHT22;18963;51.504;5.316;2022-08-23T15:05:07;30.20;53.20
32522;DHT22;18963;51.504;5.316;2022-08-23T15:07:33;30.10;53.80
32522;DHT22;18963;51.504;5.316;2022-08-23T15:09:58;30.00;53.60
32522;DHT22;18963;51.504;5.316;2022-08-23T15:12:23;30.00;53.90
32522;DHT22;18963;51.504;5.316;2022-08-23T15:14:49;29.90;54.00
32522;DHT22;18963;51.504;5.316;2022-08-23T15:17:16;29.70;54.30
32522;DHT22;18963;51.504;5.316;2022-08-23T15:19:43;29.60;54.30
32522;DHT22;18963;51.504;5.316;2022-08-23T15:22:08;29.50;54.70
32522;DHT22;18963;51.504;5.316;2022-08-23T15:24:34;29.30;54.80
32522;DHT22;18963;51.504;5.316;2022-08-23T15:26:59;29.20;55.20
32522;DHT22;18963;51.504;5.316;2022-08-23T15:29:26;29.10;55.60
32522;DHT22;18963;51.504;5.316;2022-08-23T15:31:52;29.10;55.80
32522;DHT22;18963;51.504;5.316;2022-08-23T15:34:18;29.10;56.30
32522;DHT22;18963;51.504;5.316;2022-08-23T15:36:45;29.10;55.70
32522;DHT22;18963;51.504;5.316;2022-08-23T15:39:12;29.10;55.50
32522;DHT22;18963;51.504;5.316;2022-08-23T15:41:37;29.10;56.00
32522;DHT22;18963;51.504;5.316;2022-08-23T15:44:03;29.10;55.70
32522;DHT22;18963;51.504;5.316;2022-08-23T15:46:28;29.20;55.90
32522;DHT22;18963;51.504;5.316;2022-08-23T15:48:59;29.20;55.50
32522;DHT22;18963;51.504;5.316;2022-08-23T15:51:26;29.20;55.40
32522;DHT22;18963;51.504;5.316;2022-08-23T15:53:52;29.20;55.70
32522;DHT22;18963;51.504;5.316;2022-08-23T15:56:20;29.20;55.80
32522;DHT22;18963;51.504;5.316;2022-08-23T15:58:46;29.20;55.80
32522;DHT22;18963;51.504;5.316;2022-08-23T16:01:12;29.20;56.40
32522;DHT22;18963;51.504;5.316;2022-08-23T16:03:38;29.10;55.90
32522;DHT22;18963;51.504;5.316;2022-08-23T16:06:06;29.10;56.00
32522;DHT22;18963;51.504;5.316;2022-08-23T16:08:33;29.10;56.30
32522;DHT22;18963;51.504;5.316;2022-08-23T16:10:59;29.00;56.00
32522;DHT22;18963;51.504;5.316;2022-08-23T16:13:26;29.00;55.80
32522;DHT22;18963;51.504;5.316;2022-08-23T16:15:51;29.00;56.10
32522;DHT22;18963;51.504;5.316;2022-08-23T16:18:17;29.00;55.50
32522;DHT22;18963;51.504;5.316;2022-08-23T16:20:43;29.00;55.60
32522;DHT22;18963;51.504;5.316;2022-08-23T16:23:09;28.90;55.50
32522;DHT22;18963;51.504;5.316;2022-08-23T16:25:34;28.80;55.40
32522;DHT22;18963;51.504;5.316;2022-08-23T16:28:00;28.80;55.80
32522;DHT22;18963;51.504;5.316;2022-08-23T16:30:25;28.60;56.10
32522;DHT22;18963;51.504;5.316;2022-08-23T16:32:53;28.50;56.70
32522;DHT22;18963;51.504;5.316;2022-08-23T16:35:19;28.50;56.70
32522;DHT22;18963;51.504;5.316;2022-08-23T16:37:44;28.40;56.60
32522;DHT22;18963;51.504;5.316;2022-08-23T16:40:10;28.30;56.90
32522;DHT22;18963;51.504;5.316;2022-08-23T16:42:36;28.30;57.10
32522;DHT22;18963;51.504;5.316;2022-08-23T16:45:02;28.30;57.10
32522;DHT22;18963;51.504;5.316;2022-08-23T16:47:28;28.30;57.30
32522;DHT22;18963;51.504;5.316;2022-08-23T16:49:55;28.30;57.30
32522;DHT22;18963;51.504;5.316;2022-08-23T16:52:20;28.30;57.80
32522;DHT22;18963;51.504;5.316;2022-08-23T16:54:46;28.30;57.40
32522;DHT22;18963;51.504;5.316;2022-08-23T16:57:11;28.30;57.30
32522;DHT22;18963;51.504;5.316;2022-08-23T16:59:37;28.20;57.30
32522;DHT22;18963;51.504;5.316;2022-08-23T17:02:03;28.30;57.60
32522;DHT22;18963;51.504;5.316;2022-08-23T17:04:29;28.20;58.00
32522;DHT22;18963;51.504;5.316;2022-08-23T17:06:55;28.10;58.30
32522;DHT22;18963;51.504;5.316;2022-08-23T17:09:21;28.10;58.40
32522;DHT22;18963;51.504;5.316;2022-08-23T17:11:47;28.00;58.30
32522;DHT22;18963;51.504;5.316;2022-08-23T17:14:13;28.00;58.10
32522;DHT22;18963;51.504;5.316;2022-08-23T17:16:39;28.00;57.90